sensor_id;sensor_type;location;lat;lon;timestamp;P1;durP1;ratioP1;P2;durP2;ratioP2
71172;SDS011;58875;51.996;4.504;2024-02-23T00:00:07;5.93;;;4.04;;
71172;SDS011;58875;51.996;4.504;2024-02-23T00:02:37;6.02;;;4.16;;
71172;SDS011;58875;51.996;4.504;2024-02-23T00:05:02;5.48;;;3.88;;
71172;SDS011;58875;51.996;4.504;2024-02-23T00:07:29;4.43;;;3.15;;
71172;SDS011;58875;51.996;4.504;2024-02-23T00:09:54;4.66;;;3.33;;
71172;SDS011;58875;51.996;4.504;2024-02-23T00:12:20;5.06;;;3.50;;
71172;SDS011;58875;51.996;4.504;2024-02-23T00:14:45;5.28;;;3.60;;
71172;SDS011;58875;51.996;4.504;2024-02-23T00:17:11;5.52;;;3.74;;
71172;SDS011;58875;51.996;4.504;2024-02-23T00:19:36;5.82;;;3.88;;
71172;SDS011;58875;51.996;4.504;2024-02-23T00:22:02;6.08;;;4.07;;
71172;SDS011;58875;51.996;4.504;2024-02-23T00:24:28;6.04;;;4.00;;
71172;SDS011;58875;51.996;4.504;2024-02-23T00:26:54;6.36;;;4.17;;
71172;SDS011;58875;51.996;4.504;2024-02-23T00:29:20;6.59;;;4.31;;
71172;SDS011;58875;51.996;4.504;2024-02-23T00:31:46;5.54;;;3.65;;
71172;SDS011;58875;51.996;4.504;2024-02-23T00:34:12;5.83;;;3.87;;
71172;SDS011;58875;51.996;4.504;2024-02-23T00:36:39;6.16;;;4.07;;
71172;SDS011;58875;51.996;4.504;2024-02-23T00:39:06;5.85;;;3.86;;
71172;SDS011;58875;51.996;4.504;2024-02-23T00:41:32;6.12;;;4.02;;
71172;SDS011;58875;51.996;4.504;2024-02-23T00:43:58;6.75;;;4.49;;
71172;SDS011;58875;51.996;4.504;2024-02-23T00:46:24;6.54;;;4.38;;
71172;SDS011;58875;51.996;4.504;2024-02-23T00:48:49;7.05;;;4.69;;
71172;SDS011;58875;51.996;4.504;2024-02-23T00:51:15;6.71;;;4.43;;
71172;SDS011;58875;51.996;4.504;2024-02-23T00:53:41;6.60;;;4.44;;
71172;SDS011;58875;51.996;4.504;2024-02-23T00:56:06;6.04;;;4.02;;
71172;SDS011;58875;51.996;4.504;2024-02-23T00:58:32;6.14;;;4.08;;
71172;SDS011;58875;51.996;4.504;2024-02-23T01:00:57;5.99;;;4.00;;
71172;SDS011;58875;51.996;4.504;2024-02-23T01:03:24;6.63;;;4.41;;
71172;SDS011;58875;51.996;4.504;2024-02-23T01:05:49;6.57;;;4.32;;
71172;SDS011;58875;51.996;4.504;2024-02-23T01:08:15;6.58;;;4.24;;
71172;SDS011;58875;51.996;4.504;2024-02-23T01:10:40;5.61;;;3.68;;
71172;SDS011;58875;51.996;4.504;2024-02-23T01:13:06;6.15;;;4.10;;
71172;SDS011;58875;51.996;4.504;2024-02-23T01:15:31;5.08;;;3.41;;
71172;SDS011;58875;51.996;4.504;2024-02-23T01:17:57;5.01;;;3.38;;
71172;SDS011;58875;51.996;4.504;2024-02-23T01:20:22;4.94;;;3.30;;
71172;SDS011;58875;51.996;4.504;2024-02-23T01:22:48;5.77;;;3.81;;
71172;SDS011;58875;51.996;4.504;2024-02-23T01:25:13;5.44;;;3.63;;
71172;SDS011;58875;51.996;4.504;2024-02-23T01:27:41;5.11;;;3.42;;
71172;SDS011;58875;51.996;4.504;2024-02-23T01:30:07;5.58;;;3.70;;
71172;SDS011;58875;51.996;4.504;2024-02-23T01:32:32;5.89;;;3.88;;
71172;SDS011;58875;51.996;4.504;2024-02-23T01:34:58;5.23;;;3.45;;
71172;SDS011;58875;51.996;4.504;2024-02-23T01:37:24;4.76;;;3.19;;
71172;SDS011;58875;51.996;4.504;2024-02-23T01:39:49;4.82;;;3.31;;
71172;SDS011;58875;51.996;4.504;2024-02-23T01:42:15;4.03;;;2.82;;
71172;SDS011;58875;51.996;4.504;2024-02-23T01:44:40;4.22;;;2.95;;
71172;SDS011;58875;51.996;4.504;2024-02-23T01:47:06;4.23;;;2.93;;
71172;SDS011;58875;51.996;4.504;2024-02-23T01:49:31;4.37;;;3.01;;
71172;SDS011;58875;51.996;4.504;2024-02-23T01:51:59;4.55;;;3.11;;
71172;SDS011;58875;51.996;4.504;2024-02-23T01:54:26;4.82;;;3.29;;
71172;SDS011;58875;51.996;4.504;2024-02-23T01:56:53;5.07;;;3.39;;
71172;SDS011;58875;51.996;4.504;2024-02-23T01:59:22;5.48;;;3.60;;
71172;SDS011;58875;51.996;4.504;2024-02-23T02:01:49;6.01;;;3.94;;
71172;SDS011;58875;51.996;4.504;2024-02-23T02:04:14;5.03;;;3.31;;
71172;SDS011;58875;51.996;4.504;2024-02-23T02:06:40;5.93;;;3.87;;
71172;SDS011;58875;51.996;4.504;2024-02-23T02:09:05;5.84;;;3.81;;
71172;SDS011;58875;51.996;4.504;2024-02-23T02:11:31;5.84;;;3.86;;
71172;SDS011;58875;51.996;4.504;2024-02-23T02:13:57;5.34;;;3.52;;
71172;SDS011;58875;51.996;4.504;2024-02-23T02:16:22;5.52;;;3.63;;
71172;SDS011;58875;51.996;4.504;2024-02-23T02:18:48;5.03;;;3.34;;
71172;SDS011;58875;51.996;4.504;2024-02-23T02:21:13;5.64;;;3.75;;
71172;SDS011;58875;51.996;4.504;2024-02-23T02:23:39;4.97;;;3.32;;
71172;SDS011;58875;51.996;4.504;2024-02-23T02:26:05;4.99;;;3.35;;
71172;SDS011;58875;51.996;4.504;2024-02-23T02:28:31;4.91;;;3.28;;
71172;SDS011;58875;51.996;4.504;2024-02-23T02:30:56;5.10;;;3.38;;
71172;SDS011;58875;51.996;4.504;2024-02-23T02:33:22;4.92;;;3.25;;
71172;SDS011;58875;51.996;4.504;2024-02-23T02:35:48;4.31;;;2.84;;
71172;SDS011;58875;51.996;4.504;2024-02-23T02:38:17;4.96;;;3.23;;
71172;SDS011;58875;51.996;4.504;2024-02-23T02:40:43;5.38;;;3.50;;
71172;SDS011;58875;51.996;4.504;2024-02-23T02:43:08;4.80;;;3.11;;
71172;SDS011;58875;51.996;4.504;2024-02-23T02:45:34;5.40;;;3.54;;
71172;SDS011;58875;51.996;4.504;2024-02-23T02:48:00;5.81;;;3.82;;
71172;SDS011;58875;51.996;4.504;2024-02-23T02:50:26;5.49;;;3.65;;
71172;SDS011;58875;51.996;4.504;2024-02-23T02:52:51;5.06;;;3.36;;
71172;SDS011;58875;51.996;4.504;2024-02-23T02:55:17;5.73;;;3.82;;
71172;SDS011;58875;51.996;4.504;2024-02-23T02:57:43;4.91;;;3.25;;
71172;SDS011;58875;51.996;4.504;2024-02-23T03:00:09;4.98;;;3.30;;
71172;SDS011;58875;51.996;4.504;2024-02-23T03:02:35;5.23;;;3.47;;
71172;SDS011;58875;51.996;4.504;2024-02-23T03:05:01;4.66;;;3.13;;
71172;SDS011;58875;51.996;4.504;2024-02-23T03:07:26;4.47;;;3.01;;
71172;SDS011;58875;51.996;4.504;2024-02-23T03:09:52;4.49;;;3.04;;
71172;SDS011;58875;51.996;4.504;2024-02-23T03:12:17;5.06;;;3.44;;
71172;SDS011;58875;51.996;4.504;2024-02-23T03:14:43;5.03;;;3.39;;
71172;SDS011;58875;51.996;4.504;2024-02-23T03:17:09;4.02;;;2.72;;
71172;SDS011;58875;51.996;4.504;2024-02-23T03:19:35;4.69;;;3.19;;
71172;SDS011;58875;51.996;4.504;2024-02-23T03:22:01;4.52;;;3.07;;
71172;SDS011;58875;51.996;4.504;2024-02-23T03:24:27;4.43;;;3.03;;
71172;SDS011;58875;51.996;4.504;2024-02-23T03:26:52;4.41;;;3.02;;
71172;SDS011;58875;51.996;4.504;2024-02-23T03:29:18;4.95;;;3.39;;
71172;SDS011;58875;51.996;4.504;2024-02-23T03:31:43;4.75;;;3.21;;
71172;SDS011;58875;51.996;4.504;2024-02-23T03:34:09;4.63;;;3.15;;
71172;SDS011;58875;51.996;4.504;2024-02-23T03:36:34;4.34;;;2.92;;
71172;SDS011;58875;51.996;4.504;2024-02-23T03:39:01;4.57;;;3.08;;
71172;SDS011;58875;51.996;4.504;2024-02-23T03:41:27;4.24;;;2.88;;
71172;SDS011;58875;51.996;4.504;2024-02-23T03:43:52;4.06;;;2.76;;
71172;SDS011;58875;51.996;4.504;2024-02-23T03:46:18;4.25;;;2.87;;
71172;SDS011;58875;51.996;4.504;2024-02-23T03:48:44;4.53;;;3.02;;
71172;SDS011;58875;51.996;4.504;2024-02-23T03:51:10;4.33;;;2.89;;
71172;SDS011;58875;51.996;4.504;2024-02-23T03:53:36;4.31;;;2.90;;
71172;SDS011;58875;51.996;4.504;2024-02-23T03:56:02;4.39;;;2.94;;
71172;SDS011;58875;51.996;4.504;2024-02-23T03:58:28;4.28;;;2.85;;
71172;SDS011;58875;51.996;4.504;2024-02-23T04:00:53;4.92;;;3.28;;
71172;SDS011;58875;51.996;4.504;2024-02-23T04:03:19;4.58;;;3.05;;
71172;SDS011;58875;51.996;4.504;2024-02-23T04:05:45;5.21;;;3.48;;
71172;SDS011;58875;51.996;4.504;2024-02-23T04:08:10;5.19;;;3.45;;
71172;SDS011;58875;51.996;4.504;2024-02-23T04:10:36;5.81;;;3.83;;
71172;SDS011;58875;51.996;4.504;2024-02-23T04:13:01;5.07;;;3.38;;
71172;SDS011;58875;51.996;4.504;2024-02-23T04:15:27;4.62;;;3.12;;
71172;SDS011;58875;51.996;4.504;2024-02-23T04:17:52;4.78;;;3.21;;
71172;SDS011;58875;51.996;4.504;2024-02-23T04:20:18;5.29;;;3.53;;
71172;SDS011;58875;51.996;4.504;2024-02-23T04:22:44;5.26;;;3.48;;
71172;SDS011;58875;51.996;4.504;2024-02-23T04:25:09;6.14;;;4.08;;
71172;SDS011;58875;51.996;4.504;2024-02-23T04:27:35;5.81;;;3.92;;
71172;SDS011;58875;51.996;4.504;2024-02-23T04:30:01;6.00;;;4.16;;
71172;SDS011;58875;51.996;4.504;2024-02-23T04:32:27;5.25;;;3.66;;
71172;SDS011;58875;51.996;4.504;2024-02-23T04:34:53;4.86;;;3.41;;
71172;SDS011;58875;51.996;4.504;2024-02-23T04:37:18;4.60;;;3.21;;
71172;SDS011;58875;51.996;4.504;2024-02-23T04:39:44;4.50;;;3.15;;
71172;SDS011;58875;51.996;4.504;2024-02-23T04:42:09;3.99;;;2.83;;
71172;SDS011;58875;51.996;4.504;2024-02-23T04:44:35;3.51;;;2.58;;
71172;SDS011;58875;51.996;4.504;2024-02-23T04:47:01;3.49;;;2.56;;
71172;SDS011;58875;51.996;4.504;2024-02-23T04:49:27;3.71;;;2.68;;
71172;SDS011;58875;51.996;4.504;2024-02-23T04:51:53;3.48;;;2.52;;
71172;SDS011;58875;51.996;4.504;2024-02-23T04:54:19;3.10;;;2.24;;
71172;SDS011;58875;51.996;4.504;2024-02-23T04:56:46;3.10;;;2.23;;
71172;SDS011;58875;51.996;4.504;2024-02-23T04:59:12;3.28;;;2.33;;
71172;SDS011;58875;51.996;4.504;2024-02-23T05:01:38;3.17;;;2.29;;
71172;SDS011;58875;51.996;4.504;2024-02-23T05:04:04;2.86;;;2.07;;
71172;SDS011;58875;51.996;4.504;2024-02-23T05:06:30;3.64;;;2.61;;
71172;SDS011;58875;51.996;4.504;2024-02-23T05:08:55;4.10;;;3.03;;
71172;SDS011;58875;51.996;4.504;2024-02-23T05:11:21;4.39;;;3.37;;
71172;SDS011;58875;51.996;4.504;2024-02-23T05:13:47;3.60;;;2.91;;
71172;SDS011;58875;51.996;4.504;2024-02-23T05:16:16;2.81;;;2.34;;
71172;SDS011;58875;51.996;4.504;2024-02-23T05:18:41;2.75;;;2.28;;
71172;SDS011;58875;51.996;4.504;2024-02-23T05:21:08;2.74;;;2.27;;
71172;SDS011;58875;51.996;4.504;2024-02-23T05:23:35;2.42;;;2.00;;
71172;SDS011;58875;51.996;4.504;2024-02-23T05:26:01;2.52;;;2.10;;
71172;SDS011;58875;51.996;4.504;2024-02-23T05:28:26;2.54;;;2.12;;
71172;SDS011;58875;51.996;4.504;2024-02-23T05:30:54;2.85;;;2.37;;
71172;SDS011;58875;51.996;4.504;2024-02-23T05:33:20;2.82;;;2.35;;
71172;SDS011;58875;51.996;4.504;2024-02-23T05:35:46;2.79;;;2.37;;
71172;SDS011;58875;51.996;4.504;2024-02-23T05:38:14;2.93;;;2.53;;
71172;SDS011;58875;51.996;4.504;2024-02-23T05:40:40;2.63;;;2.36;;
71172;SDS011;58875;51.996;4.504;2024-02-23T05:43:05;2.59;;;2.38;;
71172;SDS011;58875;51.996;4.504;2024-02-23T05:45:31;2.63;;;2.43;;
71172;SDS011;58875;51.996;4.504;2024-02-23T05:47:56;3.05;;;2.80;;
71172;SDS011;58875;51.996;4.504;2024-02-23T05:50:22;3.31;;;3.09;;
71172;SDS011;58875;51.996;4.504;2024-02-23T05:52:48;3.01;;;2.85;;
71172;SDS011;58875;51.996;4.504;2024-02-23T05:55:13;3.16;;;3.01;;
71172;SDS011;58875;51.996;4.504;2024-02-23T05:57:39;3.53;;;3.40;;
71172;SDS011;58875;51.996;4.504;2024-02-23T06:00:05;3.68;;;3.60;;
71172;SDS011;58875;51.996;4.504;2024-02-23T06:02:32;3.39;;;3.34;;
71172;SDS011;58875;51.996;4.504;2024-02-23T06:04:58;3.80;;;3.71;;
71172;SDS011;58875;51.996;4.504;2024-02-23T06:07:23;3.98;;;3.84;;
71172;SDS011;58875;51.996;4.504;2024-02-23T06:09:57;3.61;;;3.47;;
71172;SDS011;58875;51.996;4.504;2024-02-23T06:12:22;3.72;;;3.59;;
71172;SDS011;58875;51.996;4.504;2024-02-23T06:14:50;3.35;;;3.27;;
71172;SDS011;58875;51.996;4.504;2024-02-23T06:17:16;3.31;;;3.22;;
71172;SDS011;58875;51.996;4.504;2024-02-23T06:19:42;3.41;;;3.31;;
71172;SDS011;58875;51.996;4.504;2024-02-23T06:22:07;3.18;;;3.06;;
71172;SDS011;58875;51.996;4.504;2024-02-23T06:24:35;3.50;;;3.37;;
71172;SDS011;58875;51.996;4.504;2024-02-23T06:27:01;3.33;;;3.21;;
71172;SDS011;58875;51.996;4.504;2024-02-23T06:29:28;3.66;;;3.52;;
71172;SDS011;58875;51.996;4.504;2024-02-23T06:31:54;3.79;;;3.62;;
71172;SDS011;58875;51.996;4.504;2024-02-23T06:34:20;3.87;;;3.68;;
71172;SDS011;58875;51.996;4.504;2024-02-23T06:36:46;3.69;;;3.50;;
71172;SDS011;58875;51.996;4.504;2024-02-23T06:39:12;3.39;;;3.24;;
71172;SDS011;58875;51.996;4.504;2024-02-23T06:41:38;3.73;;;3.58;;
71172;SDS011;58875;51.996;4.504;2024-02-23T06:44:04;3.93;;;3.79;;
71172;SDS011;58875;51.996;4.504;2024-02-23T06:46:30;3.96;;;3.83;;
71172;SDS011;58875;51.996;4.504;2024-02-23T06:48:56;4.02;;;3.89;;
71172;SDS011;58875;51.996;4.504;2024-02-23T06:51:21;4.50;;;4.32;;
71172;SDS011;58875;51.996;4.504;2024-02-23T06:53:47;4.52;;;4.33;;
71172;SDS011;58875;51.996;4.504;2024-02-23T06:56:12;4.56;;;4.44;;
71172;SDS011;58875;51.996;4.504;2024-02-23T06:58:38;4.10;;;4.04;;
71172;SDS011;58875;51.996;4.504;2024-02-23T07:01:04;4.19;;;4.12;;
71172;SDS011;58875;51.996;4.504;2024-02-23T07:03:31;4.31;;;4.22;;
71172;SDS011;58875;51.996;4.504;2024-02-23T07:05:56;4.16;;;4.08;;
71172;SDS011;58875;51.996;4.504;2024-02-23T07:08:22;4.32;;;4.21;;
71172;SDS011;58875;51.996;4.504;2024-02-23T07:10:47;4.60;;;4.50;;
71172;SDS011;58875;51.996;4.504;2024-02-23T07:13:13;4.35;;;4.31;;
71172;SDS011;58875;51.996;4.504;2024-02-23T07:15:38;4.50;;;4.46;;
71172;SDS011;58875;51.996;4.504;2024-02-23T07:18:04;4.41;;;4.35;;
71172;SDS011;58875;51.996;4.504;2024-02-23T07:20:30;4.03;;;4.03;;
71172;SDS011;58875;51.996;4.504;2024-02-23T07:22:55;3.81;;;3.80;;
71172;SDS011;58875;51.996;4.504;2024-02-23T07:25:21;3.47;;;3.41;;
71172;SDS011;58875;51.996;4.504;2024-02-23T07:27:47;3.91;;;3.79;;
71172;SDS011;58875;51.996;4.504;2024-02-23T07:30:16;3.75;;;3.65;;
71172;SDS011;58875;51.996;4.504;2024-02-23T07:32:42;3.86;;;3.73;;
71172;SDS011;58875;51.996;4.504;2024-02-23T07:35:09;3.84;;;3.72;;
71172;SDS011;58875;51.996;4.504;2024-02-23T07:37:34;4.01;;;3.83;;
71172;SDS011;58875;51.996;4.504;2024-02-23T07:40:01;4.28;;;4.11;;
71172;SDS011;58875;51.996;4.504;2024-02-23T07:42:28;4.55;;;4.48;;
71172;SDS011;58875;51.996;4.504;2024-02-23T07:44:54;4.63;;;4.55;;
71172;SDS011;58875;51.996;4.504;2024-02-23T07:47:19;3.96;;;3.87;;
71172;SDS011;58875;51.996;4.504;2024-02-23T07:49:45;4.13;;;4.06;;
71172;SDS011;58875;51.996;4.504;2024-02-23T07:52:10;3.75;;;3.70;;
71172;SDS011;58875;51.996;4.504;2024-02-23T07:54:36;3.72;;;3.63;;
71172;SDS011;58875;51.996;4.504;2024-02-23T07:57:01;3.62;;;3.53;;
71172;SDS011;58875;51.996;4.504;2024-02-23T07:59:28;3.37;;;3.29;;
71172;SDS011;58875;51.996;4.504;2024-02-23T08:01:54;3.60;;;3.47;;
71172;SDS011;58875;51.996;4.504;2024-02-23T08:04:20;3.25;;;3.09;;
71172;SDS011;58875;51.996;4.504;2024-02-23T08:06:46;2.92;;;2.78;;
71172;SDS011;58875;51.996;4.504;2024-02-23T08:09:11;3.24;;;3.01;;
71172;SDS011;58875;51.996;4.504;2024-02-23T08:11:37;3.14;;;2.88;;
71172;SDS011;58875;51.996;4.504;2024-02-23T08:14:02;3.65;;;3.30;;
71172;SDS011;58875;51.996;4.504;2024-02-23T08:16:28;3.31;;;2.95;;
71172;SDS011;58875;51.996;4.504;2024-02-23T08:18:54;3.47;;;3.09;;
71172;SDS011;58875;51.996;4.504;2024-02-23T08:21:20;3.72;;;3.29;;
71172;SDS011;58875;51.996;4.504;2024-02-23T08:23:46;3.75;;;3.41;;
71172;SDS011;58875;51.996;4.504;2024-02-23T08:26:11;3.97;;;3.65;;
71172;SDS011;58875;51.996;4.504;2024-02-23T08:28:37;3.73;;;3.50;;
71172;SDS011;58875;51.996;4.504;2024-02-23T08:31:03;3.58;;;3.29;;
71172;SDS011;58875;51.996;4.504;2024-02-23T08:33:28;3.42;;;3.12;;
71172;SDS011;58875;51.996;4.504;2024-02-23T08:35:54;3.66;;;3.39;;
71172;SDS011;58875;51.996;4.504;2024-02-23T08:38:20;3.60;;;3.34;;
71172;SDS011;58875;51.996;4.504;2024-02-23T08:40:45;3.79;;;3.53;;
71172;SDS011;58875;51.996;4.504;2024-02-23T08:43:11;3.78;;;3.61;;
71172;SDS011;58875;51.996;4.504;2024-02-23T08:45:36;3.51;;;3.38;;
71172;SDS011;58875;51.996;4.504;2024-02-23T08:48:02;3.54;;;3.43;;
71172;SDS011;58875;51.996;4.504;2024-02-23T08:50:32;3.65;;;3.58;;
71172;SDS011;58875;51.996;4.504;2024-02-23T08:52:57;3.43;;;3.37;;
71172;SDS011;58875;51.996;4.504;2024-02-23T08:55:23;3.39;;;3.35;;
71172;SDS011;58875;51.996;4.504;2024-02-23T08:57:48;3.77;;;3.65;;
71172;SDS011;58875;51.996;4.504;2024-02-23T09:00:14;3.68;;;3.51;;
71172;SDS011;58875;51.996;4.504;2024-02-23T09:02:40;3.73;;;3.53;;
71172;SDS011;58875;51.996;4.504;2024-02-23T09:05:07;3.70;;;3.48;;
71172;SDS011;58875;51.996;4.504;2024-02-23T09:07:33;3.70;;;3.49;;
71172;SDS011;58875;51.996;4.504;2024-02-23T09:09:59;3.87;;;3.70;;
71172;SDS011;58875;51.996;4.504;2024-02-23T09:12:25;3.56;;;3.48;;
71172;SDS011;58875;51.996;4.504;2024-02-23T09:14:51;3.58;;;3.49;;
71172;SDS011;58875;51.996;4.504;2024-02-23T09:17:17;3.40;;;3.30;;
71172;SDS011;58875;51.996;4.504;2024-02-23T09:19:44;3.25;;;3.10;;
71172;SDS011;58875;51.996;4.504;2024-02-23T09:22:10;3.53;;;3.36;;
71172;SDS011;58875;51.996;4.504;2024-02-23T09:24:38;3.54;;;3.36;;
71172;SDS011;58875;51.996;4.504;2024-02-23T09:27:05;3.20;;;3.06;;
71172;SDS011;58875;51.996;4.504;2024-02-23T09:29:32;3.25;;;3.11;;
71172;SDS011;58875;51.996;4.504;2024-02-23T09:31:58;2.98;;;2.85;;
71172;SDS011;58875;51.996;4.504;2024-02-23T09:34:24;3.15;;;2.94;;
71172;SDS011;58875;51.996;4.504;2024-02-23T09:36:49;3.57;;;3.33;;
71172;SDS011;58875;51.996;4.504;2024-02-23T09:39:15;3.07;;;2.92;;
71172;SDS011;58875;51.996;4.504;2024-02-23T09:41:41;3.40;;;3.24;;
71172;SDS011;58875;51.996;4.504;2024-02-23T09:44:07;3.45;;;3.24;;
71172;SDS011;58875;51.996;4.504;2024-02-23T09:46:34;3.14;;;2.98;;
71172;SDS011;58875;51.996;4.504;2024-02-23T09:49:02;3.44;;;3.25;;
71172;SDS011;58875;51.996;4.504;2024-02-23T09:51:28;3.28;;;3.10;;
71172;SDS011;58875;51.996;4.504;2024-02-23T09:53:55;3.42;;;3.26;;
71172;SDS011;58875;51.996;4.504;2024-02-23T09:56:23;3.36;;;3.19;;
71172;SDS011;58875;51.996;4.504;2024-02-23T09:58:54;3.45;;;3.25;;
71172;SDS011;58875;51.996;4.504;2024-02-23T10:01:27;3.40;;;3.24;;
71172;SDS011;58875;51.996;4.504;2024-02-23T10:03:56;3.30;;;3.09;;
71172;SDS011;58875;51.996;4.504;2024-02-23T10:06:24;3.18;;;2.97;;
71172;SDS011;58875;51.996;4.504;2024-02-23T10:08:50;2.71;;;2.58;;
71172;SDS011;58875;51.996;4.504;2024-02-23T10:11:19;2.89;;;2.71;;
71172;SDS011;58875;51.996;4.504;2024-02-23T10:13:46;2.72;;;2.55;;
71172;SDS011;58875;51.996;4.504;2024-02-23T10:16:12;2.75;;;2.57;;
71172;SDS011;58875;51.996;4.504;2024-02-23T10:18:37;2.79;;;2.54;;
71172;SDS011;58875;51.996;4.504;2024-02-23T10:21:04;2.74;;;2.51;;
71172;SDS011;58875;51.996;4.504;2024-02-23T10:23:30;2.71;;;2.49;;
71172;SDS011;58875;51.996;4.504;2024-02-23T10:25:55;2.66;;;2.43;;
71172;SDS011;58875;51.996;4.504;2024-02-23T10:28:21;2.59;;;2.38;;
71172;SDS011;58875;51.996;4.504;2024-02-23T10:30:48;2.19;;;2.01;;
71172;SDS011;58875;51.996;4.504;2024-02-23T10:33:14;2.53;;;2.31;;
71172;SDS011;58875;51.996;4.504;2024-02-23T10:35:39;2.57;;;2.38;;
71172;SDS011;58875;51.996;4.504;2024-02-23T10:38:07;2.47;;;2.27;;
71172;SDS011;58875;51.996;4.504;2024-02-23T10:40:34;2.21;;;2.05;;
71172;SDS011;58875;51.996;4.504;2024-02-23T10:43:06;2.28;;;2.09;;
71172;SDS011;58875;51.996;4.504;2024-02-23T10:45:37;2.71;;;2.47;;
71172;SDS011;58875;51.996;4.504;2024-02-23T10:48:05;2.49;;;2.27;;
71172;SDS011;58875;51.996;4.504;2024-02-23T10:50:31;2.30;;;2.12;;
71172;SDS011;58875;51.996;4.504;2024-02-23T10:52:57;2.26;;;2.06;;
71172;SDS011;58875;51.996;4.504;2024-02-23T10:55:24;2.14;;;1.94;;
71172;SDS011;58875;51.996;4.504;2024-02-23T10:57:51;2.33;;;2.10;;
71172;SDS011;58875;51.996;4.504;2024-02-23T11:00:18;2.24;;;2.04;;
71172;SDS011;58875;51.996;4.504;2024-02-23T11:02:49;2.40;;;2.20;;
71172;SDS011;58875;51.996;4.504;2024-02-23T11:05:17;2.40;;;2.19;;
71172;SDS011;58875;51.996;4.504;2024-02-23T11:07:45;2.43;;;2.20;;
71172;SDS011;58875;51.996;4.504;2024-02-23T11:10:15;2.53;;;2.29;;
71172;SDS011;58875;51.996;4.504;2024-02-23T11:12:41;2.43;;;2.18;;
71172;SDS011;58875;51.996;4.504;2024-02-23T11:15:06;2.56;;;2.31;;
71172;SDS011;58875;51.996;4.504;2024-02-23T11:17:41;2.71;;;2.46;;
71172;SDS011;58875;51.996;4.504;2024-02-23T11:20:09;2.32;;;2.11;;
71172;SDS011;58875;51.996;4.504;2024-02-23T11:22:40;2.53;;;2.28;;
71172;SDS011;58875;51.996;4.504;2024-02-23T11:25:06;2.62;;;2.43;;
71172;SDS011;58875;51.996;4.504;2024-02-23T11:27:36;2.36;;;2.21;;
71172;SDS011;58875;51.996;4.504;2024-02-23T11:30:06;2.48;;;2.35;;
71172;SDS011;58875;51.996;4.504;2024-02-23T11:35:19;2.58;;;2.50;;
71172;SDS011;58875;51.996;4.504;2024-02-23T11:37:45;2.68;;;2.55;;
71172;SDS011;58875;51.996;4.504;2024-02-23T11:40:12;2.60;;;2.48;;
71172;SDS011;58875;51.996;4.504;2024-02-23T11:42:38;2.30;;;2.22;;
71172;SDS011;58875;51.996;4.504;2024-02-23T11:45:05;2.30;;;2.23;;
71172;SDS011;58875;51.996;4.504;2024-02-23T11:47:31;2.26;;;2.20;;
71172;SDS011;58875;51.996;4.504;2024-02-23T11:49:56;2.11;;;2.04;;
71172;SDS011;58875;51.996;4.504;2024-02-23T11:52:21;2.35;;;2.28;;
71172;SDS011;58875;51.996;4.504;2024-02-23T11:54:47;2.37;;;2.27;;
71172;SDS011;58875;51.996;4.504;2024-02-23T11:57:12;2.47;;;2.34;;
71172;SDS011;58875;51.996;4.504;2024-02-23T11:59:39;2.41;;;2.26;;
71172;SDS011;58875;51.996;4.504;2024-02-23T12:02:06;2.56;;;2.39;;
71172;SDS011;58875;51.996;4.504;2024-02-23T12:04:32;2.55;;;2.38;;
71172;SDS011;58875;51.996;4.504;2024-02-23T12:06:58;2.76;;;2.58;;
71172;SDS011;58875;51.996;4.504;2024-02-23T12:09:23;2.38;;;2.24;;
71172;SDS011;58875;51.996;4.504;2024-02-23T12:11:49;2.45;;;2.33;;
71172;SDS011;58875;51.996;4.504;2024-02-23T12:14:15;2.61;;;2.44;;
71172;SDS011;58875;51.996;4.504;2024-02-23T12:16:41;2.70;;;2.49;;
71172;SDS011;58875;51.996;4.504;2024-02-23T12:19:07;2.82;;;2.57;;
71172;SDS011;58875;51.996;4.504;2024-02-23T12:21:34;2.66;;;2.38;;
71172;SDS011;58875;51.996;4.504;2024-02-23T12:24:03;2.15;;;1.95;;
71172;SDS011;58875;51.996;4.504;2024-02-23T12:26:31;2.35;;;2.18;;
71172;SDS011;58875;51.996;4.504;2024-02-23T12:29:00;2.39;;;2.25;;
71172;SDS011;58875;51.996;4.504;2024-02-23T12:31:28;2.36;;;2.22;;
71172;SDS011;58875;51.996;4.504;2024-02-23T12:33:54;2.58;;;2.39;;
71172;SDS011;58875;51.996;4.504;2024-02-23T12:36:21;2.65;;;2.39;;
71172;SDS011;58875;51.996;4.504;2024-02-23T12:38:48;2.33;;;2.13;;
71172;SDS011;58875;51.996;4.504;2024-02-23T12:41:13;2.31;;;2.10;;
71172;SDS011;58875;51.996;4.504;2024-02-23T12:43:39;2.86;;;2.61;;
71172;SDS011;58875;51.996;4.504;2024-02-23T12:46:05;2.93;;;2.70;;
71172;SDS011;58875;51.996;4.504;2024-02-23T12:48:31;3.01;;;2.84;;
71172;SDS011;58875;51.996;4.504;2024-02-23T12:50:57;2.80;;;2.76;;
71172;SDS011;58875;51.996;4.504;2024-02-23T12:53:35;2.70;;;2.70;;
71172;SDS011;58875;51.996;4.504;2024-02-23T12:56:09;2.80;;;2.80;;
71172;SDS011;58875;51.996;4.504;2024-02-23T12:58:36;2.93;;;2.93;;
71172;SDS011;58875;51.996;4.504;2024-02-23T13:01:03;2.88;;;2.88;;
71172;SDS011;58875;51.996;4.504;2024-02-23T13:03:31;2.97;;;2.97;;
71172;SDS011;58875;51.996;4.504;2024-02-23T13:05:57;2.70;;;2.70;;
71172;SDS011;58875;51.996;4.504;2024-02-23T13:08:23;2.50;;;2.50;;
71172;SDS011;58875;51.996;4.504;2024-02-23T13:10:51;2.52;;;2.52;;
71172;SDS011;58875;51.996;4.504;2024-02-23T13:13:17;2.18;;;2.17;;
71172;SDS011;58875;51.996;4.504;2024-02-23T13:15:43;1.84;;;1.84;;
71172;SDS011;58875;51.996;4.504;2024-02-23T13:18:09;1.59;;;1.59;;
71172;SDS011;58875;51.996;4.504;2024-02-23T13:20:38;1.55;;;1.55;;
71172;SDS011;58875;51.996;4.504;2024-02-23T13:23:06;1.60;;;1.60;;
71172;SDS011;58875;51.996;4.504;2024-02-23T13:25:36;1.58;;;1.58;;
71172;SDS011;58875;51.996;4.504;2024-02-23T13:28:04;1.42;;;1.42;;
71172;SDS011;58875;51.996;4.504;2024-02-23T13:30:30;1.38;;;1.38;;
71172;SDS011;58875;51.996;4.504;2024-02-23T13:32:56;1.17;;;1.17;;
71172;SDS011;58875;51.996;4.504;2024-02-23T13:35:22;1.32;;;1.32;;
71172;SDS011;58875;51.996;4.504;2024-02-23T13:37:49;1.31;;;1.31;;
71172;SDS011;58875;51.996;4.504;2024-02-23T13:40:14;1.30;;;1.30;;
71172;SDS011;58875;51.996;4.504;2024-02-23T13:42:40;1.10;;;1.10;;
71172;SDS011;58875;51.996;4.504;2024-02-23T13:45:06;0.96;;;0.96;;
71172;SDS011;58875;51.996;4.504;2024-02-23T13:47:36;0.88;;;0.88;;
71172;SDS011;58875;51.996;4.504;2024-02-23T13:50:02;0.97;;;0.97;;
71172;SDS011;58875;51.996;4.504;2024-02-23T13:52:28;0.80;;;0.80;;
71172;SDS011;58875;51.996;4.504;2024-02-23T13:54:55;0.90;;;0.90;;
71172;SDS011;58875;51.996;4.504;2024-02-23T13:57:20;0.89;;;0.89;;
71172;SDS011;58875;51.996;4.504;2024-02-23T13:59:47;0.75;;;0.75;;
71172;SDS011;58875;51.996;4.504;2024-02-23T14:02:13;1.00;;;0.97;;
71172;SDS011;58875;51.996;4.504;2024-02-23T14:04:38;0.98;;;0.90;;
71172;SDS011;58875;51.996;4.504;2024-02-23T14:07:04;1.21;;;1.13;;
71172;SDS011;58875;51.996;4.504;2024-02-23T14:09:30;1.00;;;0.93;;
71172;SDS011;58875;51.996;4.504;2024-02-23T14:11:56;0.89;;;0.86;;
71172;SDS011;58875;51.996;4.504;2024-02-23T14:14:22;1.02;;;1.02;;
71172;SDS011;58875;51.996;4.504;2024-02-23T14:16:48;1.02;;;1.02;;
71172;SDS011;58875;51.996;4.504;2024-02-23T14:19:14;1.03;;;1.03;;
71172;SDS011;58875;51.996;4.504;2024-02-23T14:21:40;1.35;;;1.35;;
71172;SDS011;58875;51.996;4.504;2024-02-23T14:24:05;1.18;;;1.18;;
71172;SDS011;58875;51.996;4.504;2024-02-23T14:26:31;1.25;;;1.25;;
71172;SDS011;58875;51.996;4.504;2024-02-23T14:28:57;1.34;;;1.34;;
71172;SDS011;58875;51.996;4.504;2024-02-23T14:31:23;1.14;;;1.14;;
71172;SDS011;58875;51.996;4.504;2024-02-23T14:33:49;1.40;;;1.40;;
71172;SDS011;58875;51.996;4.504;2024-02-23T14:36:16;1.52;;;1.52;;
71172;SDS011;58875;51.996;4.504;2024-02-23T14:38:42;1.75;;;1.75;;
71172;SDS011;58875;51.996;4.504;2024-02-23T14:41:08;1.75;;;1.75;;
71172;SDS011;58875;51.996;4.504;2024-02-23T14:43:35;1.74;;;1.74;;